sensor_id;sensor_type;location;lat;lon;timestamp;P1;durP1;ratioP1;P2;durP2;ratioP2
12482;SDS011;6306;47.134;15.344;2023-03-01T00:00:46;21.27;;;12.07;;
12482;SDS011;6306;47.134;15.344;2023-03-01T00:03:12;18.30;;;11.00;;
12482;SDS011;6306;47.134;15.344;2023-03-01T00:05:44;17.47;;;9.83;;
12482;SDS011;6306;47.134;15.344;2023-03-01T00:08:11;16.10;;;10.57;;
12482;SDS011;6306;47.134;15.344;2023-03-01T00:10:37;13.87;;;10.10;;
12482;SDS011;6306;47.134;15.344;2023-03-01T00:13:03;17.97;;;12.27;;
12482;SDS011;6306;47.134;15.344;2023-03-01T00:15:30;19.53;;;9.80;;
12482;SDS011;6306;47.134;15.344;2023-03-01T00:17:56;15.30;;;9.23;;
12482;SDS011;6306;47.134;15.344;2023-03-01T00:20:22;19.50;;;11.80;;
12482;SDS011;6306;47.134;15.344;2023-03-01T00:22:48;18.50;;;11.23;;
12482;SDS011;6306;47.134;15.344;2023-03-01T00:25:14;19.43;;;10.40;;
12482;SDS011;6306;47.134;15.344;2023-03-01T00:27:40;15.60;;;9.47;;
12482;SDS011;6306;47.134;15.344;2023-03-01T00:30:07;16.07;;;11.00;;
12482;SDS011;6306;47.134;15.344;2023-03-01T00:32:33;18.10;;;11.20;;
12482;SDS011;6306;47.134;15.344;2023-03-01T00:34:59;18.47;;;11.40;;
12482;SDS011;6306;47.134;15.344;2023-03-01T00:37:25;14.60;;;11.10;;
12482;SDS011;6306;47.134;15.344;2023-03-01T00:39:51;19.43;;;12.20;;
12482;SDS011;6306;47.134;15.344;2023-03-01T00:42:17;18.53;;;12.50;;
12482;SDS011;6306;47.134;15.344;2023-03-01T00:44:43;21.23;;;11.57;;
12482;SDS011;6306;47.134;15.344;2023-03-01T00:47:09;20.17;;;14.10;;
12482;SDS011;6306;47.134;15.344;2023-03-01T00:49:35;21.60;;;13.20;;
12482;SDS011;6306;47.134;15.344;2023-03-01T00:52:01;23.20;;;13.97;;
12482;SDS011;6306;47.134;15.344;2023-03-01T00:54:27;19.77;;;13.77;;
12482;SDS011;6306;47.134;15.344;2023-03-01T00:56:53;20.17;;;13.40;;
12482;SDS011;6306;47.134;15.344;2023-03-01T00:59:19;17.40;;;12.23;;
12482;SDS011;6306;47.134;15.344;2023-03-01T01:01:45;25.27;;;13.33;;
12482;SDS011;6306;47.134;15.344;2023-03-01T01:04:11;15.10;;;11.20;;
12482;SDS011;6306;47.134;15.344;2023-03-01T01:06:39;15.67;;;10.87;;
12482;SDS011;6306;47.134;15.344;2023-03-01T01:09:07;15.77;;;10.90;;
12482;SDS011;6306;47.134;15.344;2023-03-01T01:11:34;16.40;;;11.37;;
12482;SDS011;6306;47.134;15.344;2023-03-01T01:14:03;19.43;;;11.30;;
12482;SDS011;6306;47.134;15.344;2023-03-01T01:16:29;14.77;;;10.20;;
12482;SDS011;6306;47.134;15.344;2023-03-01T01:18:56;13.77;;;9.90;;
12482;SDS011;6306;47.134;15.344;2023-03-01T01:21:22;13.87;;;10.37;;
12482;SDS011;6306;47.134;15.344;2023-03-01T01:23:49;18.87;;;11.13;;
12482;SDS011;6306;47.134;15.344;2023-03-01T01:26:16;15.13;;;10.90;;
12482;SDS011;6306;47.134;15.344;2023-03-01T01:28:42;18.53;;;11.03;;
12482;SDS011;6306;47.134;15.344;2023-03-01T01:31:08;18.33;;;10.50;;
12482;SDS011;6306;47.134;15.344;2023-03-01T01:33:35;16.50;;;10.63;;
12482;SDS011;6306;47.134;15.344;2023-03-01T01:36:02;16.57;;;10.37;;
12482;SDS011;6306;47.134;15.344;2023-03-01T01:38:28;13.63;;;10.10;;
12482;SDS011;6306;47.134;15.344;2023-03-01T01:40:54;13.20;;;8.73;;
12482;SDS011;6306;47.134;15.344;2023-03-01T01:43:25;14.60;;;9.77;;
12482;SDS011;6306;47.134;15.344;2023-03-01T01:45:55;18.67;;;10.60;;
12482;SDS011;6306;47.134;15.344;2023-03-01T01:48:24;16.97;;;10.77;;
12482;SDS011;6306;47.134;15.344;2023-03-01T01:51:05;18.97;;;10.63;;
12482;SDS011;6306;47.134;15.344;2023-03-01T01:53:32;14.60;;;10.43;;
12482;SDS011;6306;47.134;15.344;2023-03-01T01:55:58;14.83;;;9.97;;
12482;SDS011;6306;47.134;15.344;2023-03-01T01:58:26;14.37;;;10.20;;
12482;SDS011;6306;47.134;15.344;2023-03-01T02:00:54;15.67;;;9.60;;
12482;SDS011;6306;47.134;15.344;2023-03-01T02:03:28;15.90;;;11.10;;
12482;SDS011;6306;47.134;15.344;2023-03-01T02:08:25;15.13;;;9.43;;
12482;SDS011;6306;47.134;15.344;2023-03-01T02:10:52;20.53;;;11.37;;
12482;SDS011;6306;47.134;15.344;2023-03-01T02:13:19;18.47;;;10.50;;
12482;SDS011;6306;47.134;15.344;2023-03-01T02:15:45;13.50;;;9.47;;
12482;SDS011;6306;47.134;15.344;2023-03-01T02:18:12;17.50;;;11.50;;
12482;SDS011;6306;47.134;15.344;2023-03-01T02:23:24;16.47;;;10.90;;
12482;SDS011;6306;47.134;15.344;2023-03-01T02:28:24;15.17;;;9.50;;
12482;SDS011;6306;47.134;15.344;2023-03-01T02:30:50;17.93;;;11.00;;
12482;SDS011;6306;47.134;15.344;2023-03-01T02:33:36;16.97;;;9.50;;
12482;SDS011;6306;47.134;15.344;2023-03-01T02:36:04;14.57;;;10.37;;
12482;SDS011;6306;47.134;15.344;2023-03-01T02:38:31;15.57;;;10.93;;
12482;SDS011;6306;47.134;15.344;2023-03-01T02:40:57;17.93;;;11.63;;
12482;SDS011;6306;47.134;15.344;2023-03-01T02:43:25;18.87;;;10.50;;
12482;SDS011;6306;47.134;15.344;2023-03-01T02:45:56;21.37;;;10.30;;
12482;SDS011;6306;47.134;15.344;2023-03-01T02:48:22;16.60;;;10.33;;
12482;SDS011;6306;47.134;15.344;2023-03-01T02:51:01;22.77;;;11.67;;
12482;SDS011;6306;47.134;15.344;2023-03-01T02:53:32;17.73;;;11.33;;
12482;SDS011;6306;47.134;15.344;2023-03-01T02:56:01;18.90;;;10.50;;
12482;SDS011;6306;47.134;15.344;2023-03-01T02:58:27;16.07;;;10.20;;
12482;SDS011;6306;47.134;15.344;2023-03-01T03:00:53;13.20;;;10.40;;
12482;SDS011;6306;47.134;15.344;2023-03-01T03:03:20;18.13;;;10.17;;
12482;SDS011;6306;47.134;15.344;2023-03-01T03:05:47;19.00;;;11.50;;
12482;SDS011;6306;47.134;15.344;2023-03-01T03:08:13;15.80;;;10.00;;
12482;SDS011;6306;47.134;15.344;2023-03-01T03:10:48;20.67;;;11.37;;
12482;SDS011;6306;47.134;15.344;2023-03-01T03:13:15;17.37;;;11.37;;
12482;SDS011;6306;47.134;15.344;2023-03-01T03:15:42;19.07;;;10.93;;
12482;SDS011;6306;47.134;15.344;2023-03-01T03:18:09;18.60;;;11.07;;
12482;SDS011;6306;47.134;15.344;2023-03-01T03:20:36;16.73;;;12.93;;
12482;SDS011;6306;47.134;15.344;2023-03-01T03:23:03;19.83;;;11.53;;
12482;SDS011;6306;47.134;15.344;2023-03-01T03:25:29;21.43;;;11.70;;
12482;SDS011;6306;47.134;15.344;2023-03-01T03:27:56;23.07;;;12.10;;
12482;SDS011;6306;47.134;15.344;2023-03-01T03:30:26;12.50;;;10.10;;
12482;SDS011;6306;47.134;15.344;2023-03-01T03:32:52;15.73;;;10.27;;
12482;SDS011;6306;47.134;15.344;2023-03-01T03:37:45;19.63;;;11.10;;
12482;SDS011;6306;47.134;15.344;2023-03-01T03:43:00;17.90;;;10.63;;
12482;SDS011;6306;47.134;15.344;2023-03-01T03:45:26;15.50;;;10.50;;
12482;SDS011;6306;47.134;15.344;2023-03-01T03:47:53;19.90;;;10.60;;
12482;SDS011;6306;47.134;15.344;2023-03-01T03:50:19;17.77;;;12.00;;
12482;SDS011;6306;47.134;15.344;2023-03-01T03:52:45;13.57;;;8.93;;
12482;SDS011;6306;47.134;15.344;2023-03-01T03:55:11;19.63;;;11.40;;
12482;SDS011;6306;47.134;15.344;2023-03-01T03:57:38;16.03;;;10.03;;
12482;SDS011;6306;47.134;15.344;2023-03-01T04:00:05;15.23;;;10.73;;
12482;SDS011;6306;47.134;15.344;2023-03-01T04:02:37;18.43;;;12.23;;
12482;SDS011;6306;47.134;15.344;2023-03-01T04:05:04;15.47;;;10.33;;
12482;SDS011;6306;47.134;15.344;2023-03-01T04:07:30;15.37;;;11.23;;
12482;SDS011;6306;47.134;15.344;2023-03-01T04:09:56;19.93;;;11.57;;
12482;SDS011;6306;47.134;15.344;2023-03-01T04:12:22;19.50;;;11.40;;
12482;SDS011;6306;47.134;15.344;2023-03-01T04:14:48;16.47;;;9.93;;
12482;SDS011;6306;47.134;15.344;2023-03-01T04:17:14;16.17;;;11.47;;
12482;SDS011;6306;47.134;15.344;2023-03-01T04:19:40;14.37;;;11.33;;
12482;SDS011;6306;47.134;15.344;2023-03-01T04:22:08;17.13;;;10.90;;
12482;SDS011;6306;47.134;15.344;2023-03-01T04:24:36;17.73;;;10.60;;
12482;SDS011;6306;47.134;15.344;2023-03-01T04:27:02;14.97;;;10.10;;
12482;SDS011;6306;47.134;15.344;2023-03-01T04:29:29;22.53;;;11.30;;
12482;SDS011;6306;47.134;15.344;2023-03-01T04:31:55;16.63;;;10.30;;
12482;SDS011;6306;47.134;15.344;2023-03-01T04:34:21;16.20;;;10.37;;
12482;SDS011;6306;47.134;15.344;2023-03-01T04:36:47;17.20;;;10.40;;
12482;SDS011;6306;47.134;15.344;2023-03-01T04:39:13;14.50;;;10.83;;
12482;SDS011;6306;47.134;15.344;2023-03-01T04:41:39;17.87;;;11.47;;
12482;SDS011;6306;47.134;15.344;2023-03-01T04:44:06;15.90;;;10.80;;
12482;SDS011;6306;47.134;15.344;2023-03-01T04:46:34;15.17;;;10.40;;
12482;SDS011;6306;47.134;15.344;2023-03-01T04:49:00;15.00;;;10.33;;
12482;SDS011;6306;47.134;15.344;2023-03-01T04:51:26;19.67;;;10.90;;
12482;SDS011;6306;47.134;15.344;2023-03-01T04:53:52;17.93;;;10.90;;
12482;SDS011;6306;47.134;15.344;2023-03-01T04:56:19;17.40;;;11.37;;
12482;SDS011;6306;47.134;15.344;2023-03-01T04:58:45;17.43;;;10.13;;
12482;SDS011;6306;47.134;15.344;2023-03-01T05:01:12;14.27;;;9.33;;
12482;SDS011;6306;47.134;15.344;2023-03-01T05:03:46;20.47;;;12.00;;
12482;SDS011;6306;47.134;15.344;2023-03-01T05:06:12;15.53;;;11.10;;
12482;SDS011;6306;47.134;15.344;2023-03-01T05:08:38;18.70;;;11.40;;
12482;SDS011;6306;47.134;15.344;2023-03-01T05:11:05;20.60;;;13.47;;
12482;SDS011;6306;47.134;15.344;2023-03-01T05:13:33;30.20;;;14.40;;
12482;SDS011;6306;47.134;15.344;2023-03-01T05:16:00;26.40;;;13.83;;
12482;SDS011;6306;47.134;15.344;2023-03-01T05:18:28;18.20;;;14.80;;
12482;SDS011;6306;47.134;15.344;2023-03-01T05:20:55;22.67;;;14.57;;
12482;SDS011;6306;47.134;15.344;2023-03-01T05:23:23;27.37;;;14.80;;
12482;SDS011;6306;47.134;15.344;2023-03-01T05:25:49;22.37;;;13.67;;
12482;SDS011;6306;47.134;15.344;2023-03-01T05:28:17;20.03;;;12.00;;
12482;SDS011;6306;47.134;15.344;2023-03-01T05:30:43;18.80;;;14.37;;
12482;SDS011;6306;47.134;15.344;2023-03-01T05:33:09;22.70;;;13.80;;
12482;SDS011;6306;47.134;15.344;2023-03-01T05:35:39;19.73;;;12.33;;
12482;SDS011;6306;47.134;15.344;2023-03-01T05:38:06;21.80;;;13.57;;
12482;SDS011;6306;47.134;15.344;2023-03-01T05:40:32;19.00;;;12.13;;
12482;SDS011;6306;47.134;15.344;2023-03-01T05:42:59;21.43;;;13.27;;
12482;SDS011;6306;47.134;15.344;2023-03-01T05:45:26;22.10;;;13.47;;
12482;SDS011;6306;47.134;15.344;2023-03-01T05:47:52;16.63;;;11.13;;
12482;SDS011;6306;47.134;15.344;2023-03-01T05:52:50;20.27;;;12.60;;
12482;SDS011;6306;47.134;15.344;2023-03-01T05:55:17;22.90;;;14.67;;
12482;SDS011;6306;47.134;15.344;2023-03-01T05:57:43;29.50;;;13.37;;
12482;SDS011;6306;47.134;15.344;2023-03-01T06:00:09;23.50;;;14.13;;
12482;SDS011;6306;47.134;15.344;2023-03-01T06:02:36;27.93;;;18.63;;
12482;SDS011;6306;47.134;15.344;2023-03-01T06:05:03;35.47;;;19.47;;
12482;SDS011;6306;47.134;15.344;2023-03-01T06:07:29;31.97;;;19.70;;
12482;SDS011;6306;47.134;15.344;2023-03-01T06:09:55;23.93;;;14.93;;
12482;SDS011;6306;47.134;15.344;2023-03-01T06:12:21;21.23;;;13.40;;
12482;SDS011;6306;47.134;15.344;2023-03-01T06:14:47;19.47;;;13.73;;
12482;SDS011;6306;47.134;15.344;2023-03-01T06:17:13;24.97;;;13.00;;
12482;SDS011;6306;47.134;15.344;2023-03-01T06:19:39;19.10;;;14.03;;
12482;SDS011;6306;47.134;15.344;2023-03-01T06:22:05;22.47;;;12.90;;
12482;SDS011;6306;47.134;15.344;2023-03-01T06:24:32;21.30;;;15.23;;
12482;SDS011;6306;47.134;15.344;2023-03-01T06:26:58;27.60;;;14.20;;
12482;SDS011;6306;47.134;15.344;2023-03-01T06:29:24;22.20;;;14.80;;
12482;SDS011;6306;47.134;15.344;2023-03-01T06:31:50;20.17;;;13.83;;
12482;SDS011;6306;47.134;15.344;2023-03-01T06:34:16;23.40;;;12.97;;
12482;SDS011;6306;47.134;15.344;2023-03-01T06:36:42;27.23;;;13.73;;
12482;SDS011;6306;47.134;15.344;2023-03-01T06:39:08;22.43;;;12.53;;
12482;SDS011;6306;47.134;15.344;2023-03-01T06:41:34;20.93;;;11.57;;
12482;SDS011;6306;47.134;15.344;2023-03-01T06:44:00;25.13;;;13.00;;
12482;SDS011;6306;47.134;15.344;2023-03-01T06:46:27;18.30;;;12.77;;
12482;SDS011;6306;47.134;15.344;2023-03-01T06:48:53;17.00;;;12.03;;
12482;SDS011;6306;47.134;15.344;2023-03-01T06:51:19;19.30;;;12.63;;
12482;SDS011;6306;47.134;15.344;2023-03-01T06:53:46;27.17;;;15.17;;
12482;SDS011;6306;47.134;15.344;2023-03-01T06:56:12;22.93;;;13.20;;
12482;SDS011;6306;47.134;15.344;2023-03-01T06:58:38;20.50;;;12.60;;
12482;SDS011;6306;47.134;15.344;2023-03-01T07:01:07;20.40;;;13.47;;
12482;SDS011;6306;47.134;15.344;2023-03-01T07:03:33;19.73;;;11.40;;
12482;SDS011;6306;47.134;15.344;2023-03-01T07:05:59;19.60;;;13.50;;
12482;SDS011;6306;47.134;15.344;2023-03-01T07:08:26;26.10;;;14.40;;
12482;SDS011;6306;47.134;15.344;2023-03-01T07:10:58;23.67;;;12.77;;
12482;SDS011;6306;47.134;15.344;2023-03-01T07:13:24;20.17;;;13.87;;
12482;SDS011;6306;47.134;15.344;2023-03-01T07:15:50;18.60;;;13.30;;
12482;SDS011;6306;47.134;15.344;2023-03-01T07:18:16;24.80;;;13.60;;
12482;SDS011;6306;47.134;15.344;2023-03-01T07:20:42;24.23;;;14.20;;
12482;SDS011;6306;47.134;15.344;2023-03-01T07:23:08;20.03;;;12.60;;
12482;SDS011;6306;47.134;15.344;2023-03-01T07:25:34;21.30;;;12.47;;
12482;SDS011;6306;47.134;15.344;2023-03-01T07:28:00;21.07;;;15.30;;
12482;SDS011;6306;47.134;15.344;2023-03-01T07:30:26;20.57;;;12.50;;
12482;SDS011;6306;47.134;15.344;2023-03-01T07:32:53;23.43;;;13.70;;
12482;SDS011;6306;47.134;15.344;2023-03-01T07:35:20;19.47;;;12.90;;
12482;SDS011;6306;47.134;15.344;2023-03-01T07:37:46;20.97;;;12.47;;
12482;SDS011;6306;47.134;15.344;2023-03-01T07:40:12;19.00;;;14.43;;
12482;SDS011;6306;47.134;15.344;2023-03-01T07:42:39;20.60;;;13.47;;
12482;SDS011;6306;47.134;15.344;2023-03-01T07:45:05;23.20;;;14.43;;
12482;SDS011;6306;47.134;15.344;2023-03-01T07:47:31;22.53;;;13.73;;
12482;SDS011;6306;47.134;15.344;2023-03-01T07:49:57;17.90;;;12.47;;
12482;SDS011;6306;47.134;15.344;2023-03-01T07:52:23;17.77;;;12.90;;
12482;SDS011;6306;47.134;15.344;2023-03-01T07:54:50;20.60;;;13.63;;
12482;SDS011;6306;47.134;15.344;2023-03-01T07:57:16;23.03;;;12.77;;
12482;SDS011;6306;47.134;15.344;2023-03-01T07:59:42;25.03;;;12.60;;
12482;SDS011;6306;47.134;15.344;2023-03-01T08:02:08;18.03;;;13.07;;
12482;SDS011;6306;47.134;15.344;2023-03-01T08:04:35;23.30;;;13.10;;
12482;SDS011;6306;47.134;15.344;2023-03-01T08:07:01;24.23;;;14.83;;
12482;SDS011;6306;47.134;15.344;2023-03-01T08:09:27;21.10;;;13.87;;
12482;SDS011;6306;47.134;15.344;2023-03-01T08:11:53;24.00;;;12.70;;
12482;SDS011;6306;47.134;15.344;2023-03-01T08:14:19;21.60;;;15.10;;
12482;SDS011;6306;47.134;15.344;2023-03-01T08:16:48;22.83;;;13.77;;
12482;SDS011;6306;47.134;15.344;2023-03-01T08:19:14;25.20;;;14.97;;
12482;SDS011;6306;47.134;15.344;2023-03-01T08:21:40;22.87;;;16.60;;
12482;SDS011;6306;47.134;15.344;2023-03-01T08:24:06;29.40;;;16.10;;
12482;SDS011;6306;47.134;15.344;2023-03-01T08:26:33;22.60;;;13.57;;
12482;SDS011;6306;47.134;15.344;2023-03-01T08:28:59;20.10;;;12.60;;
12482;SDS011;6306;47.134;15.344;2023-03-01T08:31:32;20.80;;;13.03;;
12482;SDS011;6306;47.134;15.344;2023-03-01T08:34:00;19.17;;;12.93;;
12482;SDS011;6306;47.134;15.344;2023-03-01T08:36:28;15.00;;;11.73;;
12482;SDS011;6306;47.134;15.344;2023-03-01T08:38:55;18.80;;;11.40;;
12482;SDS011;6306;47.134;15.344;2023-03-01T08:41:21;18.90;;;11.40;;
12482;SDS011;6306;47.134;15.344;2023-03-01T08:43:47;13.53;;;10.93;;
12482;SDS011;6306;47.134;15.344;2023-03-01T08:46:13;18.53;;;11.13;;
12482;SDS011;6306;47.134;15.344;2023-03-01T08:48:39;20.30;;;11.90;;
12482;SDS011;6306;47.134;15.344;2023-03-01T08:51:14;17.90;;;11.37;;
12482;SDS011;6306;47.134;15.344;2023-03-01T08:53:41;16.20;;;10.63;;
12482;SDS011;6306;47.134;15.344;2023-03-01T08:56:07;19.70;;;10.80;;
12482;SDS011;6306;47.134;15.344;2023-03-01T08:58:34;17.17;;;10.83;;
12482;SDS011;6306;47.134;15.344;2023-03-01T09:01:00;15.07;;;10.27;;
12482;SDS011;6306;47.134;15.344;2023-03-01T09:03:26;20.00;;;12.93;;
12482;SDS011;6306;47.134;15.344;2023-03-01T09:05:52;15.13;;;9.30;;
12482;SDS011;6306;47.134;15.344;2023-03-01T09:08:19;16.13;;;10.90;;
12482;SDS011;6306;47.134;15.344;2023-03-01T09:10:45;19.23;;;10.73;;
12482;SDS011;6306;47.134;15.344;2023-03-01T09:13:11;14.27;;;10.30;;
12482;SDS011;6306;47.134;15.344;2023-03-01T09:15:37;18.53;;;11.57;;
12482;SDS011;6306;47.134;15.344;2023-03-01T09:18:04;18.97;;;11.03;;
12482;SDS011;6306;47.134;15.344;2023-03-01T09:20:30;15.60;;;10.13;;
12482;SDS011;6306;47.134;15.344;2023-03-01T09:22:57;16.87;;;12.20;;
12482;SDS011;6306;47.134;15.344;2023-03-01T09:25:23;15.10;;;9.67;;
12482;SDS011;6306;47.134;15.344;2023-03-01T09:27:52;16.60;;;10.20;;
12482;SDS011;6306;47.134;15.344;2023-03-01T09:30:18;18.77;;;11.40;;
12482;SDS011;6306;47.134;15.344;2023-03-01T09:32:44;16.43;;;11.83;;
12482;SDS011;6306;47.134;15.344;2023-03-01T09:35:11;18.20;;;10.83;;
12482;SDS011;6306;47.134;15.344;2023-03-01T09:37:37;19.67;;;10.20;;
12482;SDS011;6306;47.134;15.344;2023-03-01T09:40:05;15.90;;;9.33;;
12482;SDS011;6306;47.134;15.344;2023-03-01T09:42:33;20.00;;;11.30;;
12482;SDS011;6306;47.134;15.344;2023-03-01T09:45:04;14.97;;;10.10;;
12482;SDS011;6306;47.134;15.344;2023-03-01T09:47:31;13.40;;;10.10;;
12482;SDS011;6306;47.134;15.344;2023-03-01T09:50:12;16.10;;;10.40;;
12482;SDS011;6306;47.134;15.344;2023-03-01T09:52:48;20.80;;;11.50;;
12482;SDS011;6306;47.134;15.344;2023-03-01T09:55:17;22.10;;;12.77;;
12482;SDS011;6306;47.134;15.344;2023-03-01T09:57:53;19.60;;;12.27;;
12482;SDS011;6306;47.134;15.344;2023-03-01T10:00:35;13.83;;;10.50;;
12482;SDS011;6306;47.134;15.344;2023-03-01T10:05:47;13.30;;;9.63;;
12482;SDS011;6306;47.134;15.344;2023-03-01T10:09:15;18.67;;;11.27;;
12482;SDS011;6306;47.134;15.344;2023-03-01T10:11:17;19.70;;;12.27;;
12482;SDS011;6306;47.134;15.344;2023-03-01T10:13:50;17.80;;;12.20;;
12482;SDS011;6306;47.134;15.344;2023-03-01T10:16:24;20.20;;;12.27;;
12482;SDS011;6306;47.134;15.344;2023-03-01T10:18:54;18.73;;;10.73;;
12482;SDS011;6306;47.134;15.344;2023-03-01T10:21:21;18.03;;;12.77;;
12482;SDS011;6306;47.134;15.344;2023-03-01T10:23:49;18.60;;;11.60;;
12482;SDS011;6306;47.134;15.344;2023-03-01T10:29:03;19.97;;;12.50;;
12482;SDS011;6306;47.134;15.344;2023-03-01T10:31:37;16.53;;;11.20;;
12482;SDS011;6306;47.134;15.344;2023-03-01T10:34:10;18.03;;;12.37;;
12482;SDS011;6306;47.134;15.344;2023-03-01T10:36:37;19.50;;;11.50;;
12482;SDS011;6306;47.134;15.344;2023-03-01T10:39:05;19.77;;;11.40;;
12482;SDS011;6306;47.134;15.344;2023-03-01T10:41:37;17.23;;;11.77;;
12482;SDS011;6306;47.134;15.344;2023-03-01T10:44:09;16.20;;;9.70;;
12482;SDS011;6306;47.134;15.344;2023-03-01T10:46:58;22.10;;;12.60;;
12482;SDS011;6306;47.134;15.344;2023-03-01T10:49:25;19.57;;;11.70;;
12482;SDS011;6306;47.134;15.344;2023-03-01T10:51:52;15.73;;;11.27;;
12482;SDS011;6306;47.134;15.344;2023-03-01T10:56:54;15.30;;;10.50;;
12482;SDS011;6306;47.134;15.344;2023-03-01T10:59:30;22.10;;;13.00;;
12482;SDS011;6306;47.134;15.344;2023-03-01T11:04:28;24.20;;;12.70;;
12482;SDS011;6306;47.134;15.344;2023-03-01T11:06:58;21.37;;;12.90;;
12482;SDS011;6306;47.134;15.344;2023-03-01T11:09:24;18.63;;;11.57;;
12482;SDS011;6306;47.134;15.344;2023-03-01T11:11:55;18.40;;;11.63;;
12482;SDS011;6306;47.134;15.344;2023-03-01T11:14:22;20.50;;;12.40;;
12482;SDS011;6306;47.134;15.344;2023-03-01T11:16:57;16.90;;;10.40;;
12482;SDS011;6306;47.134;15.344;2023-03-01T11:19:24;27.40;;;13.10;;
12482;SDS011;6306;47.134;15.344;2023-03-01T11:21:52;20.77;;;12.40;;
12482;SDS011;6306;47.134;15.344;2023-03-01T11:24:20;22.23;;;12.10;;
12482;SDS011;6306;47.134;15.344;2023-03-01T11:26:53;19.13;;;11.93;;
12482;SDS011;6306;47.134;15.344;2023-03-01T11:32:01;19.20;;;10.57;;
12482;SDS011;6306;47.134;15.344;2023-03-01T11:34:32;22.23;;;14.40;;
12482;SDS011;6306;47.134;15.344;2023-03-01T11:37:02;17.77;;;11.90;;
12482;SDS011;6306;47.134;15.344;2023-03-01T11:39:43;22.20;;;12.37;;
12482;SDS011;6306;47.134;15.344;2023-03-01T11:42:14;18.10;;;10.90;;
12482;SDS011;6306;47.134;15.344;2023-03-01T11:44:41;19.40;;;11.70;;
12482;SDS011;6306;47.134;15.344;2023-03-01T11:47:26;16.63;;;10.40;;
12482;SDS011;6306;47.134;15.344;2023-03-01T12:05:20;19.10;;;12.33;;
12482;SDS011;6306;47.134;15.344;2023-03-01T12:10:19;20.30;;;12.90;;
12482;SDS011;6306;47.134;15.344;2023-03-01T12:18:20;23.77;;;12.30;;
12482;SDS011;6306;47.134;15.344;2023-03-01T12:31:11;16.60;;;10.90;;
12482;SDS011;6306;47.134;15.344;2023-03-01T12:33:45;16.37;;;10.70;;
12482;SDS011;6306;47.134;15.344;2023-03-01T12:38:43;18.97;;;11.40;;
12482;SDS011;6306;47.134;15.344;2023-03-01T12:41:23;20.07;;;12.50;;
12482;SDS011;6306;47.134;15.344;2023-03-01T12:49:17;27.70;;;12.83;;
12482;SDS011;6306;47.134;15.344;2023-03-01T12:52:32;24.93;;;10.50;;
12482;SDS011;6306;47.134;15.344;2023-03-01T12:54:35;19.47;;;10.70;;
12482;SDS011;6306;47.134;15.344;2023-03-01T12:57:37;23.90;;;12.17;;
12482;SDS011;6306;47.134;15.344;2023-03-01T13:02:40;16.27;;;12.47;;
12482;SDS011;6306;47.134;15.344;2023-03-01T13:07:41;17.80;;;12.13;;
12482;SDS011;6306;47.134;15.344;2023-03-01T13:10:19;22.90;;;10.40;;
12482;SDS011;6306;47.134;15.344;2023-03-01T13:20:15;17.63;;;9.30;;
12482;SDS011;6306;47.134;15.344;2023-03-01T13:22:42;12.40;;;8.80;;
12482;SDS011;6306;47.134;15.344;2023-03-01T13:25:13;20.20;;;10.80;;
12482;SDS011;6306;47.134;15.344;2023-03-01T13:27:39;14.50;;;10.07;;
12482;SDS011;6306;47.134;15.344;2023-03-01T13:30:12;17.83;;;9.33;;
12482;SDS011;6306;47.134;15.344;2023-03-01T13:32:51;16.80;;;9.07;;
12482;SDS011;6306;47.134;15.344;2023-03-01T13:37:43;15.87;;;8.83;;
12482;SDS011;6306;47.134;15.344;2023-03-01T13:42:56;15.57;;;9.33;;
12482;SDS011;6306;47.134;15.344;2023-03-01T13:45:24;15.80;;;9.03;;
12482;SDS011;6306;47.134;15.344;2023-03-01T13:47:53;13.67;;;8.63;;
12482;SDS011;6306;47.134;15.344;2023-03-01T13:50:21;24.23;;;10.67;;
12482;SDS011;6306;47.134;15.344;2023-03-01T13:52:56;13.17;;;8.93;;
12482;SDS011;6306;47.134;15.344;2023-03-01T13:55:25;19.53;;;9.07;;
12482;SDS011;6306;47.134;15.344;2023-03-01T13:57:56;15.00;;;8.50;;
12482;SDS011;6306;47.134;15.344;2023-03-01T14:00:31;13.43;;;8.97;;
12482;SDS011;6306;47.134;15.344;2023-03-01T14:03:01;13.97;;;9.73;;
12482;SDS011;6306;47.134;15.344;2023-03-01T14:05:27;15.90;;;8.73;;
12482;SDS011;6306;47.134;15.344;2023-03-01T14:07:53;15.90;;;8.30;;
12482;SDS011;6306;47.134;15.344;2023-03-01T14:10:19;12.70;;;9.20;;
12482;SDS011;6306;47.134;15.344;2023-03-01T14:15:36;21.17;;;12.73;;
12482;SDS011;6306;47.134;15.344;2023-03-01T14:18:14;16.57;;;9.47;;
12482;SDS011;6306;47.134;15.344;2023-03-01T14:20:43;14.00;;;8.27;;
12482;SDS011;6306;47.134;15.344;2023-03-01T14:23:17;11.10;;;8.13;;
12482;SDS011;6306;47.134;15.344;2023-03-01T14:25:53;16.70;;;9.30;;
12482;SDS011;6306;47.134;15.344;2023-03-01T14:28:24;12.00;;;8.90;;
12482;SDS011;6306;47.134;15.344;2023-03-01T14:30:52;12.43;;;9.13;;
12482;SDS011;6306;47.134;15.344;2023-03-01T14:35:51;20.17;;;9.67;;
12482;SDS011;6306;47.134;15.344;2023-03-01T14:41:00;13.37;;;7.73;;
12482;SDS011;6306;47.134;15.344;2023-03-01T14:43:27;22.33;;;9.37;;
12482;SDS011;6306;47.134;15.344;2023-03-01T14:45:54;18.07;;;9.10;;
12482;SDS011;6306;47.134;15.344;2023-03-01T14:48:20;14.20;;;10.20;;
12482;SDS011;6306;47.134;15.344;2023-03-01T14:50:47;19.20;;;10.90;;
12482;SDS011;6306;47.134;15.344;2023-03-01T14:53:18;16.60;;;9.10;;
12482;SDS011;6306;47.134;15.344;2023-03-01T14:55:55;14.00;;;8.40;;
12482;SDS011;6306;47.134;15.344;2023-03-01T14:58:24;17.97;;;7.40;;
12482;SDS011;6306;47.134;15.344;2023-03-01T15:00:53;10.90;;;7.83;;
12482;SDS011;6306;47.134;15.344;2023-03-01T15:03:24;15.67;;;8.90;;
12482;SDS011;6306;47.134;15.344;2023-03-01T15:05:51;15.77;;;10.03;;
12482;SDS011;6306;47.134;15.344;2023-03-01T15:08:22;13.00;;;8.57;;
12482;SDS011;6306;47.134;15.344;2023-03-01T15:10:56;10.23;;;7.60;;
12482;SDS011;6306;47.134;15.344;2023-03-01T15:13:25;12.70;;;7.60;;
12482;SDS011;6306;47.134;15.344;2023-03-01T15:15:51;15.20;;;8.47;;
12482;SDS011;6306;47.134;15.344;2023-03-01T15:18:27;14.33;;;8.13;;
12482;SDS011;6306;47.134;15.344;2023-03-01T15:20:53;14.57;;;7.90;;
12482;SDS011;6306;47.134;15.344;2023-03-01T15:23:21;11.33;;;8.30;;
12482;SDS011;6306;47.134;15.344;2023-03-01T15:25:48;14.57;;;9.43;;
12482;SDS011;6306;47.134;15.344;2023-03-01T15:28:31;14.33;;;10.60;;
12482;SDS011;6306;47.134;15.344;2023-03-01T15:31:00;17.67;;;10.53;;
12482;SDS011;6306;47.134;15.344;2023-03-01T15:33:28;18.00;;;11.20;;
12482;SDS011;6306;47.134;15.344;2023-03-01T15:35:56;21.03;;;11.20;;
12482;SDS011;6306;47.134;15.344;2023-03-01T15:41:27;14.80;;;9.83;;
12482;SDS011;6306;47.134;15.344;2023-03-01T15:43:56;18.40;;;8.73;;
12482;SDS011;6306;47.134;15.344;2023-03-01T15:46:29;13.70;;;8.53;;
12482;SDS011;6306;47.134;15.344;2023-03-01T15:49:18;15.97;;;10.37;;
12482;SDS011;6306;47.134;15.344;2023-03-01T15:51:42;12.83;;;8.63;;
12482;SDS011;6306;47.134;15.344;2023-03-01T15:54:17;17.37;;;9.50;;
12482;SDS011;6306;47.134;15.344;2023-03-01T15:56:44;24.70;;;12.63;;
12482;SDS011;6306;47.134;15.344;2023-03-01T15:59:10;22.37;;;14.40;;
12482;SDS011;6306;47.134;15.344;2023-03-01T16:01:43;19.03;;;10.03;;
12482;SDS011;6306;47.134;15.344;2023-03-01T16:04:13;14.23;;;9.10;;
12482;SDS011;6306;47.134;15.344;2023-03-01T16:06:45;13.00;;;9.33;;
12482;SDS011;6306;47.134;15.344;2023-03-01T16:09:12;16.93;;;10.03;;